Time;durP1;ratioP1;P1;durP2;ratioP2;P2;SDS_P1;SDS_P2;PMS_P1;PMS_P2;Temp;Humidity;BMP_temperature;BMP_pressure;BME280_temperature;BME280_humidity;BME280_pressure;Samples;Min_cycle;Max_cycle;Signal;HPM_P1;HPM_P2
2023/12/13 00:01:38;;;;;;;242.45;65.25;;;7.70;99.90;;;;;;4983102;28;20038;-82
2023/12/13 00:04:04;;;;;;;268.10;67.85;;;7.70;99.90;;;;;;4974650;28;20049;-83
2023/12/13 00:06:30;;;;;;;274.17;74.45;;;7.70;99.90;;;;;;4988523;28;20034;-83
2023/12/13 00:08:55;;;;;;;360.85;78.70;;;7.70;99.90;;;;;;4990477;28;20038;-83
2023/12/13 00:11:21;;;;;;;283.02;71.75;;;7.60;99.90;;;;;;5008414;28;20100;-82
2023/12/13 00:13:47;;;;;;;319.67;75.55;;;7.60;99.90;;;;;;4983873;28;20037;-82
2023/12/13 00:16:12;;;;;;;300.98;73.95;;;7.60;99.90;;;;;;4983139;28;20070;-83
2023/12/13 00:18:38;;;;;;;178.63;65.50;;;7.60;99.90;;;;;;4958902;28;20030;-83
2023/12/13 00:21:04;;;;;;;242.77;72.60;;;7.60;99.90;;;;;;4960893;28;20125;-83
2023/12/13 00:23:29;;;;;;;403.23;83.70;;;7.60;99.90;;;;;;4990186;28;20476;-83
2023/12/13 00:25:55;;;;;;;213.55;69.05;;;7.60;99.90;;;;;;4968673;28;20082;-81
2023/12/13 00:28:20;;;;;;;174.50;62.00;;;7.60;99.90;;;;;;4958565;28;20038;-83
2023/12/13 00:30:46;;;;;;;266.75;74.30;;;7.60;99.90;;;;;;4958430;28;20035;-83
2023/12/13 00:33:14;;;;;;;329.75;77.65;;;7.60;99.90;;;;;;4984860;28;20034;-83
2023/12/13 00:35:40;;;;;;;312.05;76.80;;;7.60;99.90;;;;;;4994958;28;20119;-82
2023/12/13 00:38:05;;;;;;;196.85;63.38;;;7.60;99.90;;;;;;4999462;28;20100;-82
2023/12/13 00:40:31;;;;;;;360.67;74.90;;;7.60;99.90;;;;;;4966517;28;20042;-80
2023/12/13 00:42:56;;;;;;;114.50;49.67;;;7.60;99.90;;;;;;4995304;28;20388;-80
2023/12/13 00:45:22;;;;;;;61.00;38.58;;;7.60;99.90;;;;;;5011463;28;20404;-80
2023/12/13 00:47:49;;;;;;;93.18;43.47;;;7.60;99.90;;;;;;5000459;28;20060;-80
2023/12/13 00:50:14;;;;;;;139.02;50.20;;;7.60;99.90;;;;;;4993832;28;20033;-81
2023/12/13 00:52:40;;;;;;;103.50;43.95;;;7.60;99.90;;;;;;4999690;28;20044;-80
2023/12/13 00:55:07;;;;;;;147.15;48.08;;;7.60;99.90;;;;;;5008625;28;20167;-81
2023/12/13 00:57:33;;;;;;;118.57;44.00;;;7.60;99.90;;;;;;5013227;28;20042;-80
2023/12/13 00:59:59;;;;;;;132.48;44.05;;;7.60;99.90;;;;;;4995421;28;20034;-80
2023/12/13 01:02:27;;;;;;;82.68;35.60;;;7.60;99.90;;;;;;4979241;28;20060;-80
2023/12/13 01:04:53;;;;;;;99.75;38.40;;;7.60;99.90;;;;;;4995977;28;20045;-80
2023/12/13 01:07:18;;;;;;;66.28;32.97;;;7.60;99.90;;;;;;5013039;28;20038;-80
2023/12/13 01:09:44;;;;;;;72.70;34.50;;;7.50;99.90;;;;;;4996287;28;20033;-80
2023/12/13 01:12:10;;;;;;;138.68;43.70;;;7.50;99.90;;;;;;4975535;28;20095;-80
2023/12/13 01:14:36;;;;;;;52.25;32.05;;;7.60;99.90;;;;;;5013145;28;20033;-80
2023/12/13 01:17:02;;;;;;;89.22;39.38;;;7.50;99.90;;;;;;5012981;28;20037;-80
2023/12/13 01:19:27;;;;;;;103.45;40.67;;;7.50;99.90;;;;;;4996674;28;20414;-79
2023/12/13 01:21:53;;;;;;;107.28;40.10;;;7.50;99.90;;;;;;4995671;28;20045;-80
2023/12/13 01:24:18;;;;;;;139.13;43.15;;;7.50;99.90;;;;;;4999737;28;20037;-80
2023/12/13 01:26:44;;;;;;;57.08;33.28;;;7.50;99.90;;;;;;5014133;28;20041;-80
2023/12/13 01:29:10;;;;;;;116.90;41.28;;;7.50;99.90;;;;;;4996390;28;20045;-79
2023/12/13 01:31:35;;;;;;;123.43;41.88;;;7.50;99.90;;;;;;4994661;28;20110;-79
2023/12/13 01:34:04;;;;;;;73.20;34.45;;;7.50;99.90;;;;;;4999343;28;20109;-79
2023/12/13 01:36:30;;;;;;;91.05;37.92;;;7.50;99.90;;;;;;5015806;28;20470;-79
2023/12/13 01:38:55;;;;;;;71.95;34.10;;;7.50;99.90;;;;;;4989735;28;20168;-79
2023/12/13 01:41:21;;;;;;;88.70;38.10;;;7.50;99.90;;;;;;4999705;28;20129;-79
2023/12/13 01:43:47;;;;;;;55.22;32.58;;;7.50;99.90;;;;;;5012817;28;20420;-79
2023/12/13 01:46:15;;;;;;;66.65;33.78;;;7.50;99.90;;;;;;4999498;28;20502;-80
2023/12/13 01:48:41;;;;;;;41.47;27.95;;;7.50;99.90;;;;;;5006419;28;20033;-80
2023/12/13 01:51:07;;;;;;;103.38;39.05;;;7.50;99.90;;;;;;4990591;28;20053;-79
2023/12/13 01:53:34;;;;;;;42.28;28.40;;;7.50;99.90;;;;;;4985188;28;20041;-79
2023/12/13 01:56:02;;;;;;;61.83;33.70;;;7.50;99.90;;;;;;5007131;28;20084;-79
2023/12/13 01:58:28;;;;;;;65.32;34.75;;;7.50;99.90;;;;;;4995721;28;20558;-80
2023/12/13 02:00:55;;;;;;;89.15;37.85;;;7.50;99.90;;;;;;4979393;28;20034;-79
2023/12/13 02:03:22;;;;;;;146.95;44.25;;;7.50;99.90;;;;;;4989985;28;20038;-80
2023/12/13 02:05:50;;;;;;;83.28;37.35;;;7.50;99.90;;;;;;4997848;28;20045;-80
2023/12/13 02:08:16;;;;;;;105.75;40.22;;;7.50;99.90;;;;;;4999053;28;20069;-80
2023/12/13 02:10:42;;;;;;;101.32;39.20;;;7.50;99.90;;;;;;4981167;28;20073;-80
2023/12/13 02:13:07;;;;;;;148.27;42.63;;;7.40;99.90;;;;;;4975429;28;20193;-81
2023/12/13 02:15:35;;;;;;;78.65;35.97;;;7.40;99.90;;;;;;4995932;28;20474;-80
2023/12/13 02:18:02;;;;;;;76.80;36.40;;;7.40;99.90;;;;;;4995772;28;20546;-80
2023/12/13 02:20:27;;;;;;;74.68;35.60;;;7.30;99.90;;;;;;4991423;28;20548;-80
2023/12/13 02:22:53;;;;;;;81.60;36.13;;;7.30;99.90;;;;;;4992661;28;20120;-80
2023/12/13 02:25:32;;;;;;;123.45;39.92;;;7.30;99.90;;;;;;5015065;28;20037;-80
2023/12/13 02:27:57;;;;;;;122.80;40.53;;;7.30;99.90;;;;;;4980630;28;20049;-80
2023/12/13 02:30:24;;;;;;;128.20;43.50;;;7.20;99.90;;;;;;4973349;28;20035;-80
2023/12/13 02:32:49;;;;;;;151.10;45.08;;;7.20;99.90;;;;;;4981232;28;20072;-80
2023/12/13 02:35:16;;;;;;;128.52;42.35;;;7.20;99.90;;;;;;5014620;28;20118;-80
2023/12/13 02:37:45;;;;;;;96.40;38.80;;;7.20;99.90;;;;;;4998608;28;20029;-80
2023/12/13 02:40:13;;;;;;;73.53;35.58;;;7.20;99.90;;;;;;4963930;28;20214;-80
2023/12/13 02:42:38;;;;;;;113.47;42.28;;;7.10;99.90;;;;;;4979704;28;20030;-81
2023/12/13 02:45:06;;;;;;;81.00;37.20;;;7.20;99.90;;;;;;5014738;28;20553;-80
2023/12/13 02:47:31;;;;;;;75.85;36.30;;;7.10;99.90;;;;;;4998754;28;20038;-80
2023/12/13 02:49:57;;;;;;;70.60;35.33;;;7.20;99.90;;;;;;4994844;28;20416;-80
2023/12/13 02:52:23;;;;;;;66.47;35.15;;;7.10;99.90;;;;;;4973910;28;20038;-80
2023/12/13 02:54:48;;;;;;;92.63;38.80;;;7.20;99.90;;;;;;4992644;28;20038;-80
2023/12/13 02:57:14;;;;;;;90.93;37.80;;;7.20;99.90;;;;;;4992336;28;20120;-80
2023/12/13 02:59:39;;;;;;;84.13;39.22;;;7.20;99.90;;;;;;5009395;28;20077;-78
2023/12/13 03:02:05;;;;;;;133.25;43.33;;;7.20;99.90;;;;;;5007368;28;20514;-80
2023/12/13 03:04:30;;;;;;;74.63;37.22;;;7.20;99.90;;;;;;4989936;28;20040;-80
2023/12/13 03:06:56;;;;;;;163.48;46.60;;;7.20;99.90;;;;;;4987101;28;20084;-80
2023/12/13 03:09:21;;;;;;;204.85;49.83;;;7.30;99.90;;;;;;4978625;28;20057;-81
2023/12/13 03:11:47;;;;;;;164.13;47.75;;;7.30;99.90;;;;;;4980298;28;20095;-81
2023/12/13 03:14:12;;;;;;;208.90;52.53;;;7.30;99.90;;;;;;4995859;28;20441;-80
2023/12/13 03:16:38;;;;;;;138.57;45.13;;;7.30;99.90;;;;;;4975272;28;20096;-79
2023/12/13 03:19:03;;;;;;;148.55;46.65;;;7.30;99.90;;;;;;4959152;28;20042;-80
2023/12/13 03:21:29;;;;;;;189.48;50.72;;;7.30;99.90;;;;;;4977588;28;20049;-80
2023/12/13 03:23:55;;;;;;;112.18;40.90;;;7.30;99.90;;;;;;5013575;28;20415;-80
2023/12/13 03:26:20;;;;;;;108.57;42.35;;;7.30;99.90;;;;;;4997910;28;20399;-80
2023/12/13 03:28:46;;;;;;;87.28;40.95;;;7.30;99.90;;;;;;4990747;28;20046;-81
2023/12/13 03:31:11;;;;;;;212.27;52.95;;;7.30;99.90;;;;;;4959170;28;20049;-80
2023/12/13 03:33:37;;;;;;;213.00;53.65;;;7.30;99.90;;;;;;4992530;28;20053;-80
2023/12/13 03:36:02;;;;;;;212.55;54.97;;;7.30;99.90;;;;;;5014137;28;20407;-80
2023/12/13 03:38:28;;;;;;;174.38;49.80;;;7.30;99.90;;;;;;4997933;28;20041;-80
2023/12/13 03:40:53;;;;;;;114.47;46.38;;;7.30;99.90;;;;;;4985200;28;20406;-80
2023/12/13 03:43:19;;;;;;;182.20;51.63;;;7.30;99.90;;;;;;5007313;28;20034;-80
2023/12/13 03:45:44;;;;;;;169.40;51.92;;;7.30;99.90;;;;;;5005941;28;20133;-79
2023/12/13 03:48:10;;;;;;;140.02;50.50;;;7.30;99.90;;;;;;4994368;28;20037;-80
2023/12/13 03:50:35;;;;;;;116.20;47.70;;;7.30;99.90;;;;;;4988419;28;20030;-82
2023/12/13 03:53:01;;;;;;;131.10;51.08;;;7.30;99.90;;;;;;4986017;28;20133;-80
2023/12/13 03:55:26;;;;;;;230.55;59.50;;;7.30;99.90;;;;;;4988557;28;20485;-80
2023/12/13 03:57:52;;;;;;;219.98;56.42;;;7.40;99.90;;;;;;4994505;28;20492;-81
2023/12/13 04:00:18;;;;;;;199.65;57.90;;;7.30;99.90;;;;;;4994174;28;20073;-80
2023/12/13 04:02:43;;;;;;;121.85;50.05;;;7.30;99.90;;;;;;5006555;28;20124;-80
2023/12/13 04:05:09;;;;;;;197.40;57.53;;;7.30;99.90;;;;;;4995148;28;20449;-80
2023/12/13 04:07:34;;;;;;;203.68;58.22;;;7.30;99.90;;;;;;4982465;28;20558;-81
2023/12/13 04:10:00;;;;;;;284.15;66.30;;;7.30;99.90;;;;;;4979539;28;20034;-81
2023/12/13 04:12:25;;;;;;;137.65;52.80;;;7.30;99.90;;;;;;4986459;28;20163;-80
2023/12/13 04:14:51;;;;;;;214.07;59.40;;;7.30;99.90;;;;;;5004124;28;20040;-81
2023/12/13 04:17:16;;;;;;;301.80;65.35;;;7.30;99.90;;;;;;5001478;28;20096;-80
2023/12/13 04:19:42;;;;;;;214.23;57.95;;;7.30;99.90;;;;;;4987976;28;20042;-80
2023/12/13 04:22:07;;;;;;;195.65;57.20;;;7.30;99.90;;;;;;4973996;28;20048;-81
2023/12/13 04:24:33;;;;;;;243.20;63.25;;;7.20;99.90;;;;;;5001036;28;20275;-80
2023/12/13 04:26:58;;;;;;;176.43;56.90;;;7.30;99.90;;;;;;5017448;28;20068;-80
2023/12/13 04:29:24;;;;;;;160.70;57.75;;;7.30;99.90;;;;;;4965497;28;20492;-80
2023/12/13 04:31:50;;;;;;;139.55;55.63;;;7.20;99.90;;;;;;4984515;28;20117;-80
2023/12/13 04:34:15;;;;;;;237.80;64.93;;;7.20;99.90;;;;;;4993507;28;20072;-78
2023/12/13 04:36:41;;;;;;;117.97;51.30;;;7.20;99.90;;;;;;4981856;28;20044;-80
2023/12/13 04:39:07;;;;;;;167.90;57.60;;;7.20;99.90;;;;;;4981458;28;20415;-80
2023/12/13 04:41:32;;;;;;;103.57;50.60;;;7.20;99.90;;;;;;5013363;28;20041;-79
2023/12/13 04:43:58;;;;;;;107.63;52.78;;;7.20;99.90;;;;;;5013918;28;20128;-81
2023/12/13 04:46:23;;;;;;;135.35;56.25;;;7.30;99.90;;;;;;5013696;28;20042;-81
2023/12/13 04:48:49;;;;;;;159.32;58.67;;;7.20;99.90;;;;;;4982760;28;20093;-80
2023/12/13 04:51:14;;;;;;;244.27;68.07;;;7.20;99.90;;;;;;4980821;28;20099;-80
2023/12/13 04:53:40;;;;;;;209.07;63.22;;;7.20;99.90;;;;;;4988816;28;20038;-81
2023/12/13 04:56:06;;;;;;;131.15;55.50;;;7.20;99.90;;;;;;4997332;28;20038;-80
2023/12/13 04:58:32;;;;;;;209.13;65.32;;;7.20;99.90;;;;;;4983972;28;20599;-80
2023/12/13 05:00:57;;;;;;;110.30;56.40;;;7.20;99.90;;;;;;4965473;28;20042;-83
2023/12/13 05:03:23;;;;;;;203.38;66.75;;;7.20;99.90;;;;;;4989319;28;20053;-82
2023/12/13 05:05:48;;;;;;;171.27;60.17;;;7.20;99.90;;;;;;5015679;28;20080;-83
2023/12/13 05:08:14;;;;;;;155.57;59.55;;;7.20;99.90;;;;;;4975891;28;20144;-83
2023/12/13 05:10:41;;;;;;;165.52;60.67;;;7.20;99.90;;;;;;4961504;28;20073;-83
2023/12/13 05:13:07;;;;;;;159.43;60.38;;;7.20;99.90;;;;;;4985354;28;20117;-82
2023/12/13 05:15:33;;;;;;;231.25;68.63;;;7.20;99.90;;;;;;5000174;28;20037;-83
2023/12/13 05:17:58;;;;;;;174.27;63.53;;;7.20;99.90;;;;;;4979588;28;20053;-83
2023/12/13 05:20:24;;;;;;;141.80;57.72;;;7.20;99.90;;;;;;4977228;28;20125;-83
2023/12/13 05:22:49;;;;;;;130.55;58.00;;;7.20;99.90;;;;;;4996957;28;20068;-82
2023/12/13 05:25:15;;;;;;;218.60;66.93;;;7.20;99.90;;;;;;4997813;28;20080;-83
2023/12/13 05:27:42;;;;;;;260.75;71.68;;;7.20;99.90;;;;;;4991774;28;20081;-83
2023/12/13 05:30:08;;;;;;;289.67;73.63;;;7.20;99.90;;;;;;4996404;28;20042;-83
2023/12/13 05:32:34;;;;;;;133.98;58.92;;;7.30;99.90;;;;;;4994382;28;20136;-83
2023/12/13 05:35:00;;;;;;;287.42;73.30;;;7.30;99.90;;;;;;4991904;28;20496;-83
2023/12/13 05:37:25;;;;;;;200.23;66.40;;;7.30;99.90;;;;;;4988055;28;20040;-83
2023/12/13 05:39:51;;;;;;;325.23;73.90;;;7.30;99.90;;;;;;5012903;28;20125;-83
2023/12/13 05:42:17;;;;;;;174.02;62.55;;;7.30;99.90;;;;;;4994848;28;20151;-83
2023/12/13 05:44:42;;;;;;;207.30;67.22;;;7.30;99.90;;;;;;4999479;28;20042;-82
2023/12/13 05:47:08;;;;;;;109.28;56.42;;;7.30;99.90;;;;;;4993285;28;20034;-83
2023/12/13 05:49:33;;;;;;;284.90;71.10;;;7.30;99.90;;;;;;4965197;28;20476;-83
2023/12/13 05:51:59;;;;;;;263.40;69.85;;;7.30;99.90;;;;;;4995655;28;20052;-83
2023/12/13 05:54:24;;;;;;;138.48;58.90;;;7.30;99.90;;;;;;4999358;28;20087;-82
2023/12/13 05:56:50;;;;;;;234.68;65.63;;;7.30;99.90;;;;;;5047377;22;20137;-76
2023/12/13 05:59:16;;;;;;;160.27;60.38;;;7.30;99.90;;;;;;4994549;28;20048;-76
2023/12/13 06:01:42;;;;;;;301.33;72.38;;;7.30;99.90;;;;;;4979438;28;20049;-76
2023/12/13 06:04:08;;;;;;;172.25;62.88;;;7.30;99.90;;;;;;4983971;28;20080;-77
2023/12/13 06:06:34;;;;;;;235.68;66.03;;;7.30;99.90;;;;;;4999207;28;20045;-76
2023/12/13 06:09:00;;;;;;;186.13;62.42;;;7.30;99.90;;;;;;4969153;28;20410;-76
2023/12/13 06:11:26;;;;;;;229.68;65.75;;;7.30;99.90;;;;;;4979192;28;20077;-76
2023/12/13 06:13:52;;;;;;;203.68;64.30;;;7.30;99.90;;;;;;4946220;28;20078;-76
2023/12/13 06:16:18;;;;;;;246.52;67.40;;;7.30;99.90;;;;;;4940563;28;20046;-77
2023/12/13 06:18:44;;;;;;;329.08;72.75;;;7.30;99.90;;;;;;4969866;28;20034;-76
2023/12/13 06:21:10;;;;;;;137.02;56.72;;;7.30;99.90;;;;;;4972320;28;20037;-77
2023/12/13 06:23:36;;;;;;;182.40;62.90;;;7.30;99.90;;;;;;4975315;28;20034;-77
2023/12/13 06:26:03;;;;;;;141.90;59.28;;;7.30;99.90;;;;;;4975024;28;20035;-76
2023/12/13 06:28:29;;;;;;;115.68;54.22;;;7.40;99.90;;;;;;4959478;28;20237;-77
2023/12/13 06:30:55;;;;;;;339.30;72.10;;;7.40;99.90;;;;;;4959096;28;20056;-76
2023/12/13 06:33:21;;;;;;;126.40;57.03;;;7.40;99.90;;;;;;4953932;28;20035;-77
2023/12/13 06:35:48;;;;;;;121.10;54.58;;;7.40;99.90;;;;;;4973340;28;20030;-77
2023/12/13 06:38:14;;;;;;;117.28;54.35;;;7.40;99.90;;;;;;4984688;28;20045;-78
2023/12/13 06:40:40;;;;;;;125.65;55.80;;;7.40;99.90;;;;;;4956330;28;20042;-78
2023/12/13 06:43:07;;;;;;;107.28;54.47;;;7.40;99.90;;;;;;4967668;28;20488;-77
2023/12/13 06:45:33;;;;;;;199.15;63.42;;;7.50;99.90;;;;;;4959149;28;20053;-77
2023/12/13 06:48:01;;;;;;;120.88;54.35;;;7.50;99.90;;;;;;4967158;28;20045;-77
2023/12/13 06:50:28;;;;;;;190.50;63.20;;;7.50;99.90;;;;;;4978621;28;20118;-77
2023/12/13 06:52:54;;;;;;;195.63;62.83;;;7.50;99.90;;;;;;4959829;28;20039;-77
2023/12/13 06:55:21;;;;;;;178.07;61.35;;;7.50;99.90;;;;;;4940312;28;20100;-77
2023/12/13 06:57:48;;;;;;;202.57;64.25;;;7.50;99.90;;;;;;4964882;28;20042;-77
2023/12/13 07:00:14;;;;;;;192.70;62.13;;;7.50;99.90;;;;;;4973249;28;20050;-77
2023/12/13 07:02:40;;;;;;;185.65;62.45;;;7.50;99.90;;;;;;4972074;28;20491;-77
2023/12/13 07:05:07;;;;;;;120.45;55.20;;;7.50;99.90;;;;;;4976353;28;20045;-78
2023/12/13 07:07:33;;;;;;;229.95;67.03;;;7.50;99.90;;;;;;4963366;28;20046;-77
2023/12/13 07:10:00;;;;;;;203.38;64.50;;;7.60;99.90;;;;;;4963419;28;20412;-77
2023/12/13 07:12:29;;;;;;;162.38;59.30;;;7.50;99.90;;;;;;4975545;28;20065;-77
2023/12/13 07:14:58;;;;;;;186.20;61.65;;;7.50;99.90;;;;;;4951423;28;20238;-77
2023/12/13 07:17:25;;;;;;;297.08;71.25;;;7.50;99.90;;;;;;4956503;28;20030;-76
2023/12/13 07:19:51;;;;;;;315.40;73.32;;;7.50;99.90;;;;;;4967677;28;20400;-76
2023/12/13 07:22:18;;;;;;;278.77;65.13;;;7.50;99.90;;;;;;4978229;28;20071;-76
2023/12/13 07:24:45;;;;;;;188.38;61.05;;;7.40;99.90;;;;;;4976064;28;20050;-77
2023/12/13 07:27:11;;;;;;;180.85;61.33;;;7.40;99.90;;;;;;4956872;28;20034;-76
2023/12/13 07:29:40;;;;;;;214.57;64.15;;;7.40;99.90;;;;;;4961676;28;20041;-79
2023/12/13 07:32:22;;;;;;;185.98;61.83;;;7.40;99.90;;;;;;4942477;28;20038;-81
2023/12/13 07:34:48;;;;;;;202.77;63.50;;;7.40;99.90;;;;;;4946399;28;20191;-78
2023/12/13 07:37:19;;;;;;;313.27;69.85;;;7.40;99.90;;;;;;4948317;28;20366;-80
2023/12/13 07:39:58;;;;;;;174.27;59.88;;;7.40;99.90;;;;;;4982453;28;20038;-77
2023/12/13 07:42:27;;;;;;;151.10;57.30;;;7.30;99.90;;;;;;4969544;28;20114;-79
2023/12/13 07:44:54;;;;;;;249.45;67.10;;;7.30;99.90;;;;;;4977635;28;20049;-77
2023/12/13 07:47:20;;;;;;;261.80;68.53;;;7.40;99.90;;;;;;4972019;28;20124;-79
2023/12/13 07:49:51;;;;;;;165.27;59.45;;;7.40;99.90;;;;;;4973823;28;20034;-79
2023/12/13 07:52:17;;;;;;;193.38;61.17;;;7.40;99.90;;;;;;4961554;28;20439;-77
2023/12/13 07:54:48;;;;;;;242.93;64.68;;;7.30;99.90;;;;;;4943722;28;20537;-78
2023/12/13 07:57:14;;;;;;;305.48;69.60;;;7.30;99.90;;;;;;4943665;28;20030;-79
2023/12/13 07:59:40;;;;;;;111.82;52.30;;;7.40;99.90;;;;;;4951959;28;20037;-77
2023/12/13 08:02:06;;;;;;;337.88;71.88;;;7.40;99.90;;;;;;4961719;28;20038;-76
2023/12/13 08:04:32;;;;;;;219.15;62.65;;;7.30;99.90;;;;;;4971369;28;20171;-79
2023/12/13 08:06:59;;;;;;;141.00;56.58;;;7.40;99.90;;;;;;4972271;28;20046;-77
2023/12/13 08:09:25;;;;;;;157.20;58.50;;;7.40;99.90;;;;;;4981399;28;20416;-77
2023/12/13 08:11:52;;;;;;;165.23;57.72;;;7.40;99.90;;;;;;4980923;28;20041;-77
2023/12/13 08:14:18;;;;;;;223.30;63.40;;;7.50;99.90;;;;;;4949883;28;20117;-77
2023/12/13 08:17:17;;;;;;;137.88;53.15;;;7.50;99.90;;;;;;4957220;28;20440;-81
2023/12/13 08:20:00;;;;;;;194.15;60.55;;;7.50;99.90;;;;;;4967459;28;20041;-79
2023/12/13 08:22:41;;;;;;;213.38;63.55;;;7.50;99.90;;;;;;4969538;28;20056;-77
2023/12/13 08:25:16;;;;;;;195.63;61.55;;;7.50;99.90;;;;;;4945376;28;20513;-76
2023/12/13 08:27:45;;;;;;;258.20;68.65;;;7.50;99.90;;;;;;4943758;28;20121;-77
2023/12/13 08:30:15;;;;;;;175.32;59.60;;;7.50;99.90;;;;;;4950877;28;20180;-77
2023/12/13 08:32:41;;;;;;;204.18;62.22;;;7.50;99.90;;;;;;4961040;28;20531;-77
2023/12/13 08:35:10;;;;;;;310.52;72.50;;;7.50;99.90;;;;;;4963127;28;20035;-77
2023/12/13 08:37:39;;;;;;;147.75;58.45;;;7.50;99.90;;;;;;4961967;28;20145;-78
2023/12/13 08:40:11;;;;;;;320.53;78.17;;;7.50;99.90;;;;;;4962885;28;20039;-77
2023/12/13 08:42:46;;;;;;;250.23;69.05;;;7.60;99.90;;;;;;4959677;28;20049;-78
2023/12/13 08:45:15;;;;;;;255.70;66.63;;;7.60;99.90;;;;;;4980865;28;20037;-77
2023/12/13 08:47:44;;;;;;;347.90;75.25;;;7.60;99.90;;;;;;4980202;28;20115;-77
2023/12/13 08:50:12;;;;;;;284.55;73.13;;;7.60;99.90;;;;;;4980387;28;20058;-77
2023/12/13 08:52:43;;;;;;;161.15;60.33;;;7.70;99.90;;;;;;4974546;28;20039;-77
2023/12/13 08:55:09;;;;;;;145.40;57.13;;;7.70;99.90;;;;;;4996529;28;20053;-77
2023/12/13 08:57:36;;;;;;;258.05;73.13;;;7.70;99.90;;;;;;4980461;28;20034;-77
2023/12/13 09:00:04;;;;;;;158.60;60.47;;;7.80;99.90;;;;;;4980823;28;20106;-79
2023/12/13 09:02:30;;;;;;;164.70;63.05;;;7.80;99.90;;;;;;4977113;28;20080;-77
2023/12/13 09:05:00;;;;;;;265.70;72.85;;;7.80;99.90;;;;;;4969508;28;20100;-77
2023/12/13 09:07:26;;;;;;;220.23;65.28;;;7.80;99.90;;;;;;4977494;28;20060;-78
2023/12/13 09:09:52;;;;;;;230.90;66.38;;;7.90;99.90;;;;;;4993497;28;20046;-77
2023/12/13 09:12:18;;;;;;;196.77;65.68;;;7.90;99.90;;;;;;4976704;28;20124;-77
2023/12/13 09:14:44;;;;;;;305.48;73.90;;;7.90;99.90;;;;;;4978640;28;20041;-77
2023/12/13 09:17:12;;;;;;;139.57;59.85;;;8.00;99.90;;;;;;4980475;28;20092;-77
2023/12/13 09:19:38;;;;;;;277.75;71.75;;;8.00;99.90;;;;;;4961856;28;20559;-77
2023/12/13 09:22:04;;;;;;;253.85;71.95;;;8.00;99.90;;;;;;4979238;28;20042;-77
2023/12/13 09:24:32;;;;;;;115.85;54.35;;;8.00;99.90;;;;;;4977840;28;20045;-77
2023/12/13 09:27:01;;;;;;;204.85;64.22;;;8.00;99.90;;;;;;4971653;28;20053;-77
2023/12/13 09:29:30;;;;;;;124.65;55.58;;;8.00;99.90;;;;;;4980077;28;20389;-77
2023/12/13 09:32:00;;;;;;;271.45;70.53;;;8.10;99.90;;;;;;4977650;28;20492;-77
2023/12/13 09:34:26;;;;;;;132.43;56.60;;;8.00;99.90;;;;;;4972593;28;20088;-76
2023/12/13 09:36:57;;;;;;;289.83;72.00;;;8.10;99.90;;;;;;4979947;28;20116;-77
2023/12/13 09:39:25;;;;;;;215.77;64.07;;;8.10;99.90;;;;;;4979942;28;20038;-78
2023/12/13 09:42:10;;;;;;;166.13;59.88;;;8.10;99.90;;;;;;4976994;28;20052;-77
2023/12/13 09:44:39;;;;;;;208.07;66.65;;;8.20;99.90;;;;;;4976402;28;20038;-77
2023/12/13 09:47:09;;;;;;;162.07;61.38;;;8.20;99.90;;;;;;4970978;28;20038;-78
2023/12/13 09:49:39;;;;;;;;;;;8.10;99.90;;;;;;4974602;28;20398;-77
2023/12/13 09:52:10;;;;;;;306.77;73.97;;;8.20;99.90;;;;;;4976363;28;20360;-77
2023/12/13 09:54:39;;;;;;;92.53;51.17;;;8.20;99.90;;;;;;4973014;28;20081;-77
2023/12/13 09:57:08;;;;;;;154.10;60.80;;;8.30;99.90;;;;;;4970314;28;20039;-77
2023/12/13 09:59:41;;;;;;;240.60;67.93;;;8.40;99.90;;;;;;4968641;28;20060;-78
2023/12/13 10:02:12;;;;;;;137.38;57.38;;;8.40;99.90;;;;;;4972498;28;20054;-77
2023/12/13 10:04:39;;;;;;;82.43;47.83;;;8.50;99.90;;;;;;4982628;28;20038;-77
2023/12/13 10:07:08;;;;;;;112.20;52.67;;;8.50;99.90;;;;;;4979485;28;20034;-77
2023/12/13 10:09:49;;;;;;;81.68;47.42;;;8.50;99.90;;;;;;4973306;28;20052;-78
2023/12/13 10:12:17;;;;;;;70.63;43.88;;;8.60;99.90;;;;;;4966346;28;20097;-77
2023/12/13 10:14:47;;;;;;;56.97;40.60;;;8.60;99.90;;;;;;4968816;28;20030;-77
2023/12/13 10:17:12;;;;;;;105.78;51.63;;;8.70;99.90;;;;;;4970997;28;20388;-77
2023/12/13 10:19:44;;;;;;;65.40;42.53;;;8.70;99.90;;;;;;4978852;28;20041;-77
2023/12/13 10:22:15;;;;;;;48.28;36.80;;;8.70;99.90;;;;;;4979044;28;20499;-77
2023/12/13 10:24:45;;;;;;;142.20;53.10;;;8.80;99.90;;;;;;4979616;28;20413;-77
2023/12/13 10:27:16;;;;;;;59.05;41.17;;;8.80;99.90;;;;;;4972151;28;20046;-77
2023/12/13 10:29:48;;;;;;;50.63;38.38;;;8.80;99.90;;;;;;4970343;28;20543;-77
2023/12/13 10:32:21;;;;;;;51.40;37.13;;;8.90;99.90;;;;;;4979312;28;20065;-77
2023/12/13 10:34:57;;;;;;;43.65;35.92;;;8.90;99.90;;;;;;4979005;28;20440;-77
2023/12/13 10:37:30;;;;;;;44.20;35.22;;;9.00;99.90;;;;;;4979050;28;20106;-77
2023/12/13 10:39:59;;;;;;;48.75;35.95;;;9.00;99.90;;;;;;4974683;28;20094;-77
2023/12/13 10:42:28;;;;;;;48.72;36.50;;;9.00;99.90;;;;;;4966636;28;20439;-77
2023/12/13 10:45:00;;;;;;;57.72;39.85;;;9.10;99.90;;;;;;4974905;28;20456;-77
2023/12/13 10:47:34;;;;;;;74.43;43.47;;;9.00;99.90;;;;;;4975557;28;20049;-77
2023/12/13 10:50:00;;;;;;;100.32;47.58;;;9.00;99.90;;;;;;4974895;28;20038;-77
2023/12/13 10:52:36;;;;;;;95.30;48.58;;;9.00;99.90;;;;;;4966177;28;20044;-77
2023/12/13 10:55:10;;;;;;;95.35;48.03;;;9.00;99.90;;;;;;4978651;28;20081;-77
2023/12/13 10:57:41;;;;;;;50.78;38.22;;;9.10;99.90;;;;;;4994307;28;20044;-77
2023/12/13 11:00:11;;;;;;;59.03;40.15;;;9.10;99.90;;;;;;4977495;28;20042;-77
2023/12/13 11:02:52;;;;;;;;;;;9.10;99.90;;;;;;4969598;28;20137;-77
2023/12/13 11:05:29;;;;;;;75.07;43.20;;;9.10;99.90;;;;;;4972996;28;19964;-77
2023/12/13 11:08:03;;;;;;;43.00;35.28;;;9.10;99.90;;;;;;4975491;28;20331;-78
2023/12/13 11:10:32;;;;;;;55.40;38.83;;;9.10;99.90;;;;;;4966612;28;20477;-76
2023/12/13 11:13:08;;;;;;;61.30;40.97;;;9.00;99.90;;;;;;4966932;28;20070;-78
2023/12/13 11:15:43;;;;;;;46.60;35.42;;;9.00;99.90;;;;;;4943958;28;20449;-77
2023/12/13 11:18:19;;;;;;;61.78;40.05;;;9.00;99.90;;;;;;4958921;28;20034;-76
2023/12/13 11:20:47;;;;;;;62.88;41.42;;;8.90;99.90;;;;;;4964660;28;20038;-76
2023/12/13 11:23:37;;;;;;;55.97;39.58;;;8.90;99.90;;;;;;4967836;28;20053;-77
2023/12/13 11:26:15;;;;;;;47.00;37.95;;;8.90;99.90;;;;;;4975036;28;20038;-77
2023/12/13 11:28:49;;;;;;;56.25;41.30;;;9.00;99.90;;;;;;4961748;28;20038;-77
2023/12/13 11:31:18;;;;;;;62.53;43.53;;;8.90;99.90;;;;;;4977915;28;20050;-77
2023/12/13 11:33:44;;;;;;;58.80;41.95;;;8.90;99.90;;;;;;4990269;28;20041;-78
2023/12/13 11:36:20;;;;;;;74.68;46.08;;;9.00;99.90;;;;;;4976302;28;20510;-78
2023/12/13 11:38:53;;;;;;;50.33;38.15;;;9.00;99.90;;;;;;4956360;28;20421;-77
2023/12/13 11:41:20;;;;;;;53.67;39.42;;;9.00;99.90;;;;;;4939551;28;20141;-76
2023/12/13 11:43:46;;;;;;;47.72;38.00;;;8.90;99.90;;;;;;4956931;28;20038;-76
2023/12/13 11:46:13;;;;;;;41.53;35.08;;;9.00;99.90;;;;;;4974755;28;20045;-77
2023/12/13 11:48:39;;;;;;;53.28;39.95;;;9.10;99.90;;;;;;4939653;28;20045;-78
2023/12/13 11:51:04;;;;;;;44.08;38.78;;;9.00;99.90;;;;;;4939150;28;20493;-77
2023/12/13 11:53:30;;;;;;;45.25;38.78;;;9.00;99.90;;;;;;4955051;28;20029;-74
2023/12/13 11:55:57;;;;;;;49.67;38.13;;;9.10;99.90;;;;;;4967235;28;20199;-78
2023/12/13 11:58:27;;;;;;;50.47;38.55;;;9.00;99.90;;;;;;4981282;23;20054;-82
2023/12/13 12:00:52;;;;;;;46.65;37.58;;;9.10;99.90;;;;;;4957777;28;20038;-82
2023/12/13 12:03:18;;;;;;;53.95;38.53;;;9.10;99.90;;;;;;4959487;28;20042;-82
2023/12/13 12:05:44;;;;;;;53.00;41.13;;;9.10;99.90;;;;;;4966956;28;20407;-83
2023/12/13 12:08:11;;;;;;;45.85;38.92;;;9.10;99.90;;;;;;4975263;28;20054;-82
2023/12/13 12:10:37;;;;;;;48.47;40.03;;;9.20;99.90;;;;;;4970915;28;20057;-84
2023/12/13 12:13:03;;;;;;;47.42;38.80;;;9.20;99.90;;;;;;4940766;28;20031;-83
2023/12/13 12:15:31;;;;;;;45.97;39.08;;;9.30;99.90;;;;;;4948239;28;20097;-82
2023/12/13 12:17:57;;;;;;;45.85;38.53;;;9.20;99.90;;;;;;4955673;28;20085;-80
2023/12/13 12:20:24;;;;;;;44.33;37.80;;;9.30;99.90;;;;;;4937424;29;20047;-80
2023/12/13 12:22:50;;;;;;;44.60;37.33;;;9.30;99.90;;;;;;4930303;28;20035;-80
2023/12/13 12:25:17;;;;;;;56.85;41.88;;;9.30;99.90;;;;;;4957818;28;20039;-80
2023/12/13 12:27:50;;;;;;;44.25;38.05;;;9.20;99.90;;;;;;4937779;28;20143;-79
2023/12/13 12:30:21;;;;;;;45.90;37.17;;;9.30;99.90;;;;;;4946590;28;20057;-80
2023/12/13 12:32:48;;;;;;;55.42;38.72;;;9.20;99.90;;;;;;4922327;28;20046;-79